Time;durP1;ratioP1;P1;durP2;ratioP2;P2;SDS_P1;SDS_P2;PMS_P1;PMS_P2;Temp;Humidity;BMP_temperature;BMP_pressure;BME280_temperature;BME280_humidity;BME280_pressure;Samples;Min_cycle;Max_cycle;Signal;HPM_P1;HPM_P2
2023/12/01 00:00:57;;;;;;;1.50;1.40;;;;;;;6.86;100.00;95336.53;5104855;28;20947;-55
2023/12/01 00:03:27;;;;;;;1.27;1.23;;;;;;;6.64;100.00;95362.88;5095688;28;20447;-56
2023/12/01 00:05:57;;;;;;;0.60;0.60;;;;;;;6.51;100.00;95355.31;5106105;28;20501;-56
2023/12/01 00:08:26;;;;;;;1.30;1.20;;;;;;;6.46;100.00;95365.78;5113335;28;20508;-56
2023/12/01 00:10:54;;;;;;;1.90;0.60;;;;;;;6.71;100.00;95368.75;5114158;28;20440;-56
2023/12/01 00:13:23;;;;;;;2.93;2.83;;;;;;;6.63;100.00;95363.91;5114361;28;20474;-55
2023/12/01 00:15:51;;;;;;;4.23;2.73;;;;;;;6.59;100.00;95369.91;5113864;28;20443;-55
2023/12/01 00:18:20;;;;;;;1.60;1.50;;;;;;;6.49;100.00;95341.59;5105752;28;20804;-56
2023/12/01 00:20:49;;;;;;;4.57;2.00;;;;;;;6.79;100.00;95357.81;5094886;28;20527;-56
2023/12/01 00:23:19;;;;;;;1.40;0.90;;;;;;;6.96;100.00;95357.75;5113931;28;20492;-56
2023/12/01 00:25:47;;;;;;;4.53;1.67;;;;;;;6.28;100.00;95356.31;5097501;28;20444;-56
2023/12/01 00:28:16;;;;;;;0.60;0.60;;;;;;;6.65;100.00;95377.66;5103387;28;20543;-55
2023/12/01 00:30:45;;;;;;;0.90;0.90;;;;;;;6.72;100.00;95374.81;5095351;28;20432;-55
2023/12/01 00:33:13;;;;;;;5.00;1.50;;;;;;;6.94;100.00;95380.91;5092709;28;20447;-55
2023/12/01 00:35:42;;;;;;;1.17;1.07;;;;;;;6.99;100.00;95383.59;5097058;28;20545;-55
2023/12/01 00:38:11;;;;;;;1.67;0.50;;;;;;;7.06;100.00;95386.06;5102252;28;20485;-55
2023/12/01 00:40:41;;;;;;;1.17;1.17;;;;;;;6.88;100.00;95385.31;5106474;28;20436;-55
2023/12/01 00:43:09;;;;;;;5.13;0.87;;;;;;;6.99;100.00;95383.59;5103994;28;20796;-55
2023/12/01 00:45:38;;;;;;;0.97;0.97;;;;;;;6.76;100.00;95370.66;5113544;28;20431;-56
2023/12/01 00:48:07;;;;;;;2.17;2.07;;;;;;;6.74;100.00;95388.53;5101120;28;20444;-55
2023/12/01 00:50:36;;;;;;;0.90;0.90;;;;;;;6.98;100.00;95401.25;5092355;28;20428;-56
2023/12/01 00:53:04;;;;;;;3.83;0.93;;;;;;;7.17;100.00;95401.75;5092877;28;20514;-56
2023/12/01 00:55:33;;;;;;;2.23;2.13;;;;;;;6.92;100.00;95386.44;5112870;28;20515;-56
2023/12/01 00:58:03;;;;;;;3.23;0.73;;;;;;;7.14;100.00;95390.88;5099477;28;20526;-55
2023/12/01 01:00:32;;;;;;;0.90;0.90;;;;;;;6.87;100.00;95382.94;5087636;28;20431;-55
2023/12/01 01:03:01;;;;;;;1.30;1.20;;;;;;;6.97;100.00;95394.41;5098414;28;20839;-55
2023/12/01 01:05:29;;;;;;;1.53;1.43;;;;;;;7.11;100.00;95394.81;5092435;28;20501;-55
2023/12/01 01:07:58;;;;;;;1.57;1.47;;;;;;;7.27;100.00;95379.97;5107526;28;20471;-56
2023/12/01 01:10:26;;;;;;;1.80;1.67;;;;;;;6.98;100.00;95379.41;5103010;28;20444;-55
2023/12/01 01:12:55;;;;;;;2.00;1.37;;;;;;;7.04;100.00;95391.56;5105981;28;20488;-55
2023/12/01 01:15:25;;;;;;;1.10;0.93;;;;;;;7.33;100.00;95376.38;5102244;28;20483;-55
2023/12/01 01:17:53;;;;;;;2.80;2.70;;;;;;;7.10;100.00;95361.63;5098989;28;20439;-55
2023/12/01 01:20:22;;;;;;;13.73;0.90;;;;;;;7.16;100.00;95376.44;5113212;28;20922;-55
2023/12/01 01:22:50;;;;;;;2.60;1.93;;;;;;;6.75;100.00;95376.97;5094804;28;20439;-55
2023/12/01 01:25:19;;;;;;;8.23;1.63;;;;;;;5.62;100.00;95366.78;5104128;28;20522;-55
2023/12/01 01:27:47;;;;;;;3.37;3.20;;;;;;;5.24;100.00;95356.91;5098780;28;20558;-55
2023/12/01 01:30:16;;;;;;;1.77;1.67;;;;;;;5.97;100.00;95361.38;5112723;28;20495;-56
2023/12/01 01:32:46;;;;;;;3.43;1.53;;;;;;;6.26;100.00;95362.84;5092927;28;20524;-56
2023/12/01 01:35:15;;;;;;;1.60;1.50;;;;;;;6.35;100.00;95370.09;5092169;28;20475;-56
2023/12/01 01:37:44;;;;;;;1.53;1.43;;;;;;;6.51;100.00;95363.22;5086002;28;20942;-55
2023/12/01 01:40:15;;;;;;;4.00;1.60;;;;;;;6.61;100.00;95354.66;5098827;28;20448;-56
2023/12/01 01:42:43;;;;;;;1.37;1.27;;;;;;;6.74;100.00;95368.28;5112075;28;20431;-56
2023/12/01 01:45:12;;;;;;;1.27;0.80;;;;;;;6.65;100.00;95343.41;5097623;28;20435;-55
2023/12/01 01:47:41;;;;;;;0.73;0.73;;;;;;;7.04;100.00;95365.22;5100178;28;20472;-56
2023/12/01 01:50:11;;;;;;;0.60;0.60;;;;;;;5.86;100.00;95192.06;5097866;28;21022;-56
2023/12/01 01:52:41;;;;;;;0.70;0.70;;;;;;;7.19;100.00;95375.13;5103250;28;20497;-56
2023/12/01 01:55:10;;;;;;;1.23;1.23;;;;;;;6.67;100.00;95372.13;5094260;28;20476;-56
2023/12/01 01:57:43;;;;;;;0.97;0.97;;;;;;;6.72;100.00;95380.09;5102241;28;20432;-56
2023/12/01 02:00:16;;;;;;;0.50;0.50;;;;;;;6.61;100.00;95384.41;5096060;28;20466;-56
2023/12/01 02:02:46;;;;;;;0.60;0.60;;;;;;;6.15;100.00;95332.94;5099932;28;20439;-55
2023/12/01 02:05:17;;;;;;;1.00;0.90;;;;;;;6.48;100.00;95368.19;5097693;28;20492;-55
2023/12/01 02:07:45;;;;;;;2.13;1.63;;;;;;;6.40;100.00;95353.56;5098961;28;20444;-55
2023/12/01 02:10:16;;;;;;;0.73;0.60;;;;;;;6.84;100.00;95351.78;5091294;28;20443;-55
2023/12/01 02:12:46;;;;;;;1.10;0.87;;;;;;;6.95;100.00;95369.34;5105110;28;20435;-55
2023/12/01 02:15:14;;;;;;;1.80;1.70;;;;;;;6.84;100.00;95378.13;5091503;28;20482;-57
2023/12/01 02:17:43;;;;;;;2.07;0.80;;;;;;;6.76;100.00;95386.47;5106860;28;20436;-56
2023/12/01 02:20:14;;;;;;;0.90;0.87;;;;;;;6.81;100.00;95383.88;5111949;28;20955;-56
2023/12/01 02:22:49;;;;;;;1.53;1.43;;;;;;;7.02;100.00;95383.13;5102651;28;20499;-56
2023/12/01 02:25:17;;;;;;;0.80;0.80;;;;;;;7.13;100.00;95382.22;5104939;28;20507;-56
2023/12/01 02:27:46;;;;;;;5.57;2.10;;;;;;;6.74;100.00;95378.81;5099789;28;20999;-56
2023/12/01 02:30:15;;;;;;;1.17;1.17;;;;;;;6.36;100.00;95374.34;5104174;28;20444;-56
2023/12/01 02:32:44;;;;;;;3.70;3.20;;;;;;;6.24;100.00;95368.38;5101029;28;20855;-56
2023/12/01 02:35:12;;;;;;;4.03;1.97;;;;;;;6.54;100.00;95351.41;5116191;28;20467;-56
2023/12/01 02:37:41;;;;;;;0.60;0.53;;;;;;;6.85;100.00;95356.03;5102609;28;20458;-56
2023/12/01 02:40:16;;;;;;;1.67;1.57;;;;;;;6.48;100.00;95307.63;5102426;28;20447;-56
2023/12/01 02:42:49;;;;;;;0.80;0.80;;;;;;;6.83;100.00;95361.53;5091040;28;20474;-56
2023/12/01 02:45:19;;;;;;;5.97;1.73;;;;;;;7.08;100.00;95360.25;5101916;28;20515;-55
2023/12/01 02:47:49;;;;;;;3.17;1.67;;;;;;;7.09;100.00;95341.56;5116303;28;20516;-55
2023/12/01 02:50:18;;;;;;;1.37;1.30;;;;;;;7.14;100.00;95341.63;5115420;28;20443;-55
2023/12/01 02:52:47;;;;;;;1.37;1.37;;;;;;;7.25;100.00;95334.63;5105652;28;20518;-55
2023/12/01 02:55:17;;;;;;;1.67;1.23;;;;;;;7.27;100.00;95314.88;5099235;28;20471;-56
2023/12/01 02:57:46;;;;;;;0.90;0.90;;;;;;;6.67;100.00;95288.66;5104495;28;20475;-56
2023/12/01 03:00:15;;;;;;;3.23;0.60;;;;;;;7.02;100.00;95336.50;5094995;28;21036;-56
2023/12/01 03:02:45;;;;;;;10.93;2.10;;;;;;;6.89;100.00;95309.72;5107378;28;20447;-56
2023/12/01 03:05:14;;;;;;;1.30;1.30;;;;;;;6.09;100.00;95319.97;5095836;28;20491;-56
2023/12/01 03:07:42;;;;;;;1.30;1.10;;;;;;;6.30;100.00;95322.66;5094858;28;20497;-56
2023/12/01 03:10:12;;;;;;;2.20;2.10;;;;;;;6.07;100.00;95322.84;5094952;28;20451;-56
2023/12/01 03:12:43;;;;;;;1.93;1.80;;;;;;;6.14;100.00;95314.78;5108852;28;20543;-56
2023/12/01 03:15:13;;;;;;;1.00;1.00;;;;;;;5.95;100.00;95327.38;5114970;28;20852;-55
2023/12/01 03:17:42;;;;;;;2.50;1.47;;;;;;;5.80;100.00;95335.00;5101598;28;20493;-55
2023/12/01 03:20:11;;;;;;;0.93;0.93;;;;;;;5.99;100.00;95343.50;5115476;28;20489;-55
2023/12/01 03:22:42;;;;;;;1.13;1.10;;;;;;;6.38;100.00;95343.28;5115164;28;20504;-56
2023/12/01 03:25:11;;;;;;;1.57;1.47;;;;;;;5.71;100.00;95299.63;5105083;28;20440;-56
2023/12/01 03:27:43;;;;;;;4.13;1.20;;;;;;;5.98;100.00;95347.16;5108217;28;20440;-55
2023/12/01 03:30:14;;;;;;;0.97;0.97;;;;;;;5.97;100.00;95353.47;5106339;28;20446;-55
2023/12/01 03:32:48;;;;;;;1.43;1.13;;;;;;;6.08;100.00;95342.84;5100820;28;20435;-55
2023/12/01 03:35:18;;;;;;;0.60;0.60;;;;;;;6.36;100.00;95341.94;5114870;28;20811;-55
2023/12/01 03:37:46;;;;;;;0.47;0.47;;;;;;;6.30;100.00;95327.91;5107525;28;20444;-56
2023/12/01 03:40:15;;;;;;;0.87;0.83;;;;;;;6.40;100.00;95329.88;5095685;28;20509;-55
2023/12/01 03:42:47;;;;;;;0.60;0.50;;;;;;;6.37;100.00;95341.69;5113219;28;20993;-55
2023/12/01 03:45:16;;;;;;;0.60;0.47;;;;;;;6.43;100.00;95333.88;5099605;28;20440;-55
2023/12/01 03:47:47;;;;;;;0.93;0.80;;;;;;;6.47;100.00;95327.09;5102752;28;20800;-56
2023/12/01 03:50:18;;;;;;;3.50;0.90;;;;;;;6.65;100.00;95311.81;5098566;28;20444;-55
2023/12/01 03:52:49;;;;;;;0.50;0.50;;;;;;;6.50;100.00;95316.09;5094087;28;20436;-55
2023/12/01 03:55:18;;;;;;;0.50;0.50;;;;;;;6.53;100.00;95311.09;5097445;28;20450;-56
2023/12/01 03:57:48;;;;;;;0.70;0.50;;;;;;;6.72;100.00;95316.88;5103009;28;20531;-55
2023/12/01 04:00:18;;;;;;;0.50;0.30;;;;;;;6.78;100.00;95314.06;5107262;28;20787;-56
2023/12/01 04:02:49;;;;;;;0.87;0.53;;;;;;;6.46;100.00;95328.13;5093689;28;21002;-56
2023/12/01 04:05:18;;;;;;;1.37;0.60;;;;;;;6.38;100.00;95324.88;5093825;28;20435;-56
2023/12/01 04:07:51;;;;;;;0.97;0.87;;;;;;;6.55;100.00;95330.13;5107241;28;20445;-55
2023/12/01 04:10:25;;;;;;;1.30;1.20;;;;;;;6.65;100.00;95324.97;5093933;28;20783;-56
2023/12/01 04:13:05;;;;;;;0.83;0.80;;;;;;;6.88;100.00;95337.88;5093992;28;20489;-56
2023/12/01 04:15:36;;;;;;;2.30;1.47;;;;;;;6.37;100.00;95302.22;5104057;28;20532;-55
2023/12/01 04:18:07;;;;;;;2.53;2.43;;;;;;;6.36;100.00;95313.78;5113923;28;20445;-56
2023/12/01 04:20:38;;;;;;;0.73;0.60;;;;;;;6.40;100.00;95340.41;5114312;28;20432;-55
2023/12/01 04:23:09;;;;;;;1.40;1.30;;;;;;;6.70;100.00;95350.56;5113002;28;20440;-55
2023/12/01 04:25:38;;;;;;;0.50;0.40;;;;;;;6.74;100.00;95330.59;5113634;28;20445;-54
2023/12/01 04:28:09;;;;;;;4.10;1.17;;;;;;;6.59;100.00;95341.75;5106270;28;20472;-55
2023/12/01 04:30:37;;;;;;;0.70;0.70;;;;;;;6.66;100.00;95336.28;5108124;28;20893;-55
2023/12/01 04:33:06;;;;;;;4.40;2.03;;;;;;;6.79;100.00;95342.00;5113765;28;20474;-55
2023/12/01 04:35:37;;;;;;;1.07;1.00;;;;;;;6.76;100.00;95355.66;5112772;28;20435;-55
2023/12/01 04:38:05;;;;;;;4.43;1.60;;;;;;;6.80;100.00;95337.53;5103835;28;20444;-55
2023/12/01 04:40:36;;;;;;;0.50;0.50;;;;;;;7.03;99.39;95339.94;5092958;28;20917;-55
2023/12/01 04:43:06;;;;;;;0.70;0.70;;;;;;;6.88;100.00;95343.16;5103835;28;21024;-55
2023/12/01 04:45:36;;;;;;;2.00;1.90;;;;;;;6.74;100.00;95335.88;5099599;28;20435;-55
2023/12/01 04:48:07;;;;;;;0.97;0.97;;;;;;;6.31;100.00;95336.59;5113533;28;20794;-55
2023/12/01 04:50:46;;;;;;;2.90;2.03;;;;;;;6.21;100.00;95357.50;5099384;28;20439;-55
2023/12/01 04:53:15;;;;;;;9.20;1.67;;;;;;;6.49;100.00;95346.88;5099456;28;20447;-56
2023/12/01 04:55:43;;;;;;;1.87;1.70;;;;;;;5.87;100.00;95292.81;5113510;28;20435;-55
2023/12/01 04:58:12;;;;;;;2.17;2.07;;;;;;;5.94;100.00;95352.13;5099197;28;20821;-56
2023/12/01 05:00:42;;;;;;;1.63;1.23;;;;;;;6.02;100.00;95348.28;5104291;28;20963;-56
2023/12/01 05:03:11;;;;;;;7.50;1.17;;;;;;;6.08;100.00;95332.31;5108680;28;20435;-56
2023/12/01 05:05:41;;;;;;;2.27;1.43;;;;;;;5.94;100.00;95312.66;5113205;28;20438;-56
2023/12/01 05:08:11;;;;;;;4.83;2.23;;;;;;;5.95;100.00;95364.22;5113108;28;20519;-56
2023/12/01 05:10:44;;;;;;;3.17;2.97;;;;;;;5.79;100.00;95363.13;5101802;28;20432;-56
2023/12/01 05:13:14;;;;;;;11.80;3.50;;;;;;;5.89;100.00;95353.88;5091959;28;21004;-56
2023/12/01 05:15:45;;;;;;;2.43;2.23;;;;;;;6.09;100.00;95359.44;5092386;28;20929;-56
2023/12/01 05:18:13;;;;;;;1.67;1.57;;;;;;;6.06;100.00;95355.47;5098082;28;20450;-56
2023/12/01 05:20:42;;;;;;;5.40;1.73;;;;;;;4.99;100.00;95206.72;5099410;28;20436;-56
2023/12/01 05:23:16;;;;;;;6.97;3.40;;;;;;;5.91;100.00;95326.28;5079247;28;20477;-56
2023/12/01 05:25:46;;;;;;;3.10;1.83;;;;;;;5.65;100.00;95318.97;5093403;28;20441;-56
2023/12/01 05:28:15;;;;;;;3.73;2.67;;;;;;;5.92;100.00;95369.94;5112425;28;20474;-55
2023/12/01 05:30:46;;;;;;;6.20;5.70;;;;;;;5.21;100.00;95296.16;5110196;28;20866;-56
2023/12/01 05:33:16;;;;;;;12.10;4.80;;;;;;;5.74;100.00;95352.53;5101844;28;20439;-56
2023/12/01 05:35:45;;;;;;;3.87;3.60;;;;;;;5.78;100.00;95355.50;5098774;28;20463;-55
2023/12/01 05:38:16;;;;;;;2.90;2.80;;;;;;;5.91;100.00;95371.00;5111992;28;20477;-55
2023/12/01 05:40:45;;;;;;;4.70;2.70;;;;;;;5.65;100.00;95337.38;5111758;28;20497;-55
2023/12/01 05:43:16;;;;;;;2.63;2.43;;;;;;;6.06;100.00;95376.50;5111459;28;20466;-55
2023/12/01 05:45:47;;;;;;;3.03;2.83;;;;;;;5.67;100.00;95340.56;5092675;28;20444;-56
2023/12/01 05:48:16;;;;;;;6.73;3.23;;;;;;;5.95;100.00;95358.94;5103922;28;20446;-56
2023/12/01 05:50:45;;;;;;;3.90;3.60;;;;;;;5.54;100.00;95269.94;5098446;28;20443;-56
2023/12/01 05:53:13;;;;;;;4.40;2.53;;;;;;;5.88;100.00;95337.28;5098403;28;20444;-56
2023/12/01 05:55:42;;;;;;;3.10;2.90;;;;;;;6.14;100.00;95362.16;5098912;28;20454;-56
2023/12/01 05:58:13;;;;;;;2.20;1.60;;;;;;;6.31;100.00;95350.56;5097976;28;20482;-56
2023/12/01 06:00:42;;;;;;;3.83;2.77;;;;;;;6.31;100.00;95358.47;5104216;28;20841;-56
2023/12/01 06:03:13;;;;;;;3.13;2.93;;;;;;;6.35;100.00;95351.66;5091639;28;20526;-56
2023/12/01 06:05:41;;;;;;;9.73;3.57;;;;;;;6.31;100.00;95337.41;5100967;28;20439;-56
2023/12/01 06:08:10;;;;;;;2.50;2.40;;;;;;;6.46;100.00;95339.44;5098560;28;20868;-57
2023/12/01 06:10:40;;;;;;;2.23;2.03;;;;;;;6.56;100.00;95339.59;5101803;28;20444;-56
2023/12/01 06:13:09;;;;;;;2.73;2.53;;;;;;;5.99;100.00;95256.69;5095753;28;20432;-55
2023/12/01 06:15:38;;;;;;;3.20;3.00;;;;;;;6.03;100.00;95336.72;5100638;28;20515;-55
2023/12/01 06:18:07;;;;;;;3.40;3.20;;;;;;;6.14;100.00;95346.38;5095939;28;20849;-55
2023/12/01 06:20:37;;;;;;;2.70;2.50;;;;;;;6.33;100.00;95347.69;5112095;28;20514;-55
2023/12/01 06:23:08;;;;;;;2.20;2.10;;;;;;;6.21;100.00;95337.25;5111929;28;20431;-55
2023/12/01 06:25:41;;;;;;;5.30;3.83;;;;;;;6.37;100.00;95349.59;5112070;28;20443;-55
2023/12/01 06:28:10;;;;;;;8.43;3.93;;;;;;;6.29;100.00;95328.97;5078302;28;20456;-56
2023/12/01 06:30:40;;;;;;;5.93;2.83;;;;;;;5.13;100.00;95130.00;5106030;28;20459;-55
2023/12/01 06:33:09;;;;;;;6.97;4.87;;;;;;;6.24;100.00;95336.78;5111859;28;20446;-57
2023/12/01 06:35:39;;;;;;;5.43;3.23;;;;;;;6.60;100.00;95339.91;5111996;28;20435;-55
2023/12/01 06:38:08;;;;;;;8.83;4.97;;;;;;;6.68;100.00;95342.91;5111924;28;20489;-55
2023/12/01 06:40:37;;;;;;;14.03;5.30;;;;;;;6.67;100.00;95341.31;5108135;28;20452;-55
2023/12/01 06:43:09;;;;;;;4.20;4.03;;;;;;;6.52;100.00;95348.22;5102028;28;20441;-55
2023/12/01 06:45:41;;;;;;;6.00;3.57;;;;;;;5.51;100.00;95183.66;5106887;28;20946;-56
2023/12/01 06:48:12;;;;;;;2.70;2.50;;;;;;;6.72;100.00;95348.50;5091110;28;20444;-56
2023/12/01 06:50:42;;;;;;;3.27;3.07;;;;;;;6.66;100.00;95341.56;5101745;28;20478;-56
2023/12/01 06:53:10;;;;;;;2.73;2.53;;;;;;;6.64;100.00;95346.28;5091489;28;20509;-56
2023/12/01 06:55:41;;;;;;;4.47;3.20;;;;;;;6.93;100.00;95371.44;5090960;28;20447;-56
2023/12/01 06:58:10;;;;;;;2.67;2.53;;;;;;;6.97;100.00;95372.50;5091281;28;20482;-58
2023/12/01 07:00:39;;;;;;;6.23;3.30;;;;;;;6.50;100.00;95360.84;5090990;28;20436;-56
2023/12/01 07:03:09;;;;;;;4.27;3.80;;;;;;;6.79;100.00;95354.38;5090643;28;20502;-57
2023/12/01 07:05:44;;;;;;;11.47;2.60;;;;;;;6.92;100.00;95380.34;5110516;28;20446;-56
2023/12/01 07:08:13;;;;;;;2.20;1.67;;;;;;;7.14;100.00;95382.97;5100841;28;20432;-56
2023/12/01 07:10:44;;;;;;;2.07;1.97;;;;;;;7.32;100.00;95370.28;5102759;28;20427;-57
2023/12/01 07:13:13;;;;;;;2.77;2.57;;;;;;;7.58;100.00;95372.16;5100101;28;20467;-56
2023/12/01 07:15:42;;;;;;;6.60;2.57;;;;;;;7.34;99.46;95348.94;5094559;28;20470;-56
2023/12/01 07:18:11;;;;;;;5.20;4.83;;;;;;;7.39;100.00;95367.44;5107685;28;20467;-57
2023/12/01 07:20:40;;;;;;;5.00;1.90;;;;;;;7.25;100.00;95374.97;5094706;28;21033;-57
2023/12/01 07:23:10;;;;;;;4.40;1.67;;;;;;;7.27;100.00;95372.06;5110973;28;20992;-56
2023/12/01 07:25:40;;;;;;;2.10;2.00;;;;;;;7.30;100.00;95359.19;5115048;28;20446;-57
2023/12/01 07:28:11;;;;;;;3.53;3.27;;;;;;;7.35;100.00;95361.09;5096725;28;20479;-57
2023/12/01 07:30:41;;;;;;;4.10;2.80;;;;;;;7.13;100.00;95361.13;5094838;28;20936;-56
2023/12/01 07:33:10;;;;;;;7.23;4.40;;;;;;;7.38;100.00;95363.25;5112496;28;20488;-57
2023/12/01 07:35:39;;;;;;;3.77;3.47;;;;;;;7.37;100.00;95377.47;5115039;28;20454;-57
2023/12/01 07:38:09;;;;;;;6.20;5.37;;;;;;;7.28;100.00;95374.47;5114587;28;20478;-57
2023/12/01 07:40:37;;;;;;;21.40;6.73;;;;;;;7.42;100.00;95378.31;5101381;28;20908;-57
2023/12/01 07:43:06;;;;;;;5.33;2.50;;;;;;;7.59;100.00;95371.09;5114432;28;20519;-57
2023/12/01 07:45:36;;;;;;;8.50;3.17;;;;;;;7.65;100.00;95370.13;5097570;28;20516;-58
2023/12/01 07:48:05;;;;;;;4.67;3.47;;;;;;;7.77;100.00;95369.19;5114542;28;20449;-58
2023/12/01 07:50:34;;;;;;;3.07;2.93;;;;;;;7.84;100.00;95370.56;5095653;28;20585;-57
2023/12/01 07:53:04;;;;;;;8.03;4.53;;;;;;;7.58;100.00;95380.06;5106621;28;20443;-58
2023/12/01 07:55:35;;;;;;;3.47;3.27;;;;;;;7.56;100.00;95390.06;5108058;28;20944;-58
2023/12/01 07:58:03;;;;;;;3.60;3.40;;;;;;;7.39;100.00;95386.72;5094320;28;20468;-58
2023/12/01 08:00:32;;;;;;;9.10;4.67;;;;;;;7.43;100.00;95373.84;5101128;28;20443;-58
2023/12/01 08:03:00;;;;;;;2.43;2.33;;;;;;;7.40;100.00;95398.06;5113145;27;20836;-58
2023/12/01 08:05:29;;;;;;;3.33;2.40;;;;;;;7.57;100.00;95390.84;5101632;28;20435;-58
2023/12/01 08:07:58;;;;;;;2.53;1.70;;;;;;;7.95;100.00;95387.25;5112449;28;20450;-58
2023/12/01 08:10:27;;;;;;;3.50;2.93;;;;;;;8.13;96.29;95392.97;5102829;28;20530;-57
2023/12/01 08:13:01;;;;;;;3.23;2.67;;;;;;;8.26;94.91;95392.59;5097117;28;20443;-57
2023/12/01 08:15:31;;;;;;;3.07;2.87;;;;;;;8.16;95.43;95410.94;5103842;28;20883;-58
2023/12/01 08:18:01;;;;;;;3.17;3.00;;;;;;;8.56;93.47;95405.22;5112740;28;20915;-58
2023/12/01 08:20:30;;;;;;;3.13;1.73;;;;;;;8.54;94.19;95388.81;5113678;28;20437;-58
2023/12/01 08:23:00;;;;;;;2.37;2.27;;;;;;;8.75;93.46;95387.88;5094354;28;20991;-58
2023/12/01 08:25:29;;;;;;;8.53;3.60;;;;;;;8.67;92.49;95383.09;5105999;28;21001;-58
2023/12/01 08:28:01;;;;;;;3.70;3.40;;;;;;;9.11;91.51;95380.94;5106564;28;20471;-58
2023/12/01 08:30:29;;;;;;;4.10;3.83;;;;;;;9.43;90.33;95386.91;5093176;28;20444;-58
2023/12/01 08:32:58;;;;;;;4.73;4.37;;;;;;;9.44;87.52;95388.47;5101017;28;21027;-58
2023/12/01 08:35:27;;;;;;;11.93;3.63;;;;;;;9.48;87.43;95388.75;5113439;28;20431;-59
2023/12/01 08:37:56;;;;;;;2.33;2.17;;;;;;;9.63;88.00;95380.84;5105361;28;20545;-59
2023/12/01 08:40:25;;;;;;;3.60;3.33;;;;;;;9.61;86.73;95385.63;5108843;28;20436;-59
2023/12/01 08:42:55;;;;;;;3.87;2.47;;;;;;;9.86;85.04;95387.50;5113388;28;20443;-58
2023/12/01 08:45:25;;;;;;;3.90;3.60;;;;;;;9.44;86.28;95372.59;5099391;28;20432;-59
2023/12/01 08:47:54;;;;;;;7.13;3.50;;;;;;;9.19;88.48;95387.56;5113841;28;20511;-58
2023/12/01 08:50:23;;;;;;;4.37;3.87;;;;;;;8.84;90.37;95378.44;5095673;28;20474;-59
2023/12/01 08:52:52;;;;;;;9.20;4.93;;;;;;;9.13;88.64;95370.13;5093112;28;20444;-58
2023/12/01 08:55:20;;;;;;;3.77;3.40;;;;;;;8.79;89.14;95309.69;5107347;28;20455;-57
2023/12/01 08:57:49;;;;;;;10.63;5.27;;;;;;;9.46;87.56;95369.72;5111344;28;20500;-58
2023/12/01 09:00:20;;;;;;;4.47;2.33;;;;;;;9.46;87.02;95383.69;5094819;28;20494;-59
2023/12/01 09:02:52;;;;;;;4.63;3.73;;;;;;;9.25;87.85;95383.91;5104758;28;20508;-58
2023/12/01 09:05:22;;;;;;;5.03;4.53;;;;;;;8.57;90.24;95369.03;5093828;28;20436;-58
2023/12/01 09:07:50;;;;;;;6.43;2.80;;;;;;;9.14;89.73;95387.56;5105277;28;20439;-57
2023/12/01 09:10:22;;;;;;;4.10;3.40;;;;;;;9.31;88.73;95398.75;5105979;28;20494;-57
2023/12/01 09:12:52;;;;;;;2.00;1.53;;;;;;;9.23;88.43;95386.81;5092319;28;20883;-56
2023/12/01 09:15:21;;;;;;;1.60;1.53;;;;;;;8.88;93.12;95376.06;5092361;28;20468;-58
2023/12/01 09:17:50;;;;;;;3.30;2.30;;;;;;;8.95;91.52;95385.34;5096080;28;20952;-56
2023/12/01 09:20:22;;;;;;;2.03;1.93;;;;;;;8.88;95.71;95381.34;5104819;28;20441;-57
2023/12/01 09:22:50;;;;;;;2.77;1.60;;;;;;;9.11;94.55;95373.00;5112501;28;20439;-57
2023/12/01 09:25:19;;;;;;;2.40;1.53;;;;;;;9.10;93.46;95363.50;5112845;28;20443;-57
2023/12/01 09:27:48;;;;;;;6.63;1.37;;;;;;;9.38;91.87;95359.63;5104710;28;20541;-57
2023/12/01 09:30:17;;;;;;;6.63;1.90;;;;;;;9.62;91.71;95365.22;5092369;28;20440;-58
2023/12/01 09:32:46;;;;;;;6.70;3.47;;;;;;;9.57;89.60;95355.44;5104077;28;20523;-58
2023/12/01 09:35:19;;;;;;;2.57;2.47;;;;;;;9.69;88.49;95353.31;5105294;28;20439;-58
2023/12/01 09:38:09;;;;;;;8.90;5.17;;;;;;;9.76;87.20;95340.66;5104206;28;20955;-59
2023/12/01 09:40:42;;;;;;;3.63;1.33;;;;;;;10.15;86.27;95354.19;5092049;28;20527;-58
2023/12/01 09:43:12;;;;;;;4.30;3.27;;;;;;;10.32;85.02;95341.50;5106159;28;20435;-58
2023/12/01 09:45:41;;;;;;;3.63;1.83;;;;;;;10.22;84.25;95320.28;5097729;28;20439;-58
2023/12/01 09:48:11;;;;;;;2.70;2.00;;;;;;;10.47;83.24;95322.94;5100495;28;20823;-58
2023/12/01 09:50:41;;;;;;;6.97;4.70;;;;;;;9.83;85.30;95312.06;5104842;28;20447;-57
2023/12/01 09:53:12;;;;;;;4.93;2.43;;;;;;;9.73;88.69;95301.47;5105574;28;20919;-58
2023/12/01 09:55:41;;;;;;;3.97;3.63;;;;;;;9.78;88.99;95305.97;5111932;28;20524;-57
2023/12/01 09:58:11;;;;;;;3.00;2.90;;;;;;;9.12;90.27;95223.91;5097958;28;20432;-57
2023/12/01 10:00:40;;;;;;;6.57;3.23;;;;;;;9.89;88.44;95271.28;5103898;28;20530;-58
2023/12/01 10:03:09;;;;;;;7.90;4.87;;;;;;;9.80;89.38;95274.75;5105401;28;20546;-58
2023/12/01 10:05:37;;;;;;;8.20;4.40;;;;;;;9.79;89.28;95252.75;5091564;28;20432;-58
2023/12/01 10:08:07;;;;;;;4.03;3.80;;;;;;;9.71;90.15;95258.63;5107916;28;20440;-58
2023/12/01 10:10:37;;;;;;;4.87;4.57;;;;;;;9.27;94.31;95246.91;5101643;28;20949;-58
2023/12/01 10:13:07;;;;;;;3.40;3.17;;;;;;;9.13;96.19;95253.78;5095344;28;20902;-58
2023/12/01 10:15:38;;;;;;;7.13;6.40;;;;;;;9.05;99.88;95249.00;5100943;28;20940;-58
2023/12/01 10:18:12;;;;;;;7.70;6.20;;;;;;;9.38;99.11;95274.97;5110106;28;20503;-57
2023/12/01 10:20:58;;;;;;;5.87;2.50;;;;;;;8.69;100.00;95234.88;5098563;28;20476;-58
2023/12/01 10:23:28;;;;;;;3.80;2.90;;;;;;;9.28;97.32;95296.91;5111781;28;20435;-57
2023/12/01 10:25:58;;;;;;;2.63;2.53;;;;;;;8.44;100.00;95267.28;5111382;28;20518;-57
2023/12/01 10:28:38;;;;;;;3.23;1.47;;;;;;;8.88;100.00;95273.78;5101320;28;20500;-57
2023/12/01 10:31:07;;;;;;;7.30;3.10;;;;;;;8.78;100.00;95273.75;5110778;28;20427;-57
2023/12/01 10:33:36;;;;;;;2.60;0.90;;;;;;;8.82;100.00;95280.13;5098790;28;20485;-58
2023/12/01 10:36:07;;;;;;;1.67;1.57;;;;;;;8.73;100.00;95271.09;5091510;28;20436;-57
2023/12/01 10:38:37;;;;;;;1.10;1.10;;;;;;;9.01;100.00;95240.78;5091120;28;20813;-58
2023/12/01 10:41:09;;;;;;;1.20;0.70;;;;;;;9.20;99.04;95262.25;5089975;28;20478;-57
2023/12/01 10:43:44;;;;;;;3.77;2.20;;;;;;;9.08;100.00;95237.91;5110430;28;20431;-58
2023/12/01 10:46:14;;;;;;;2.30;2.20;;;;;;;9.40;98.92;95272.88;5105771;28;21032;-58
2023/12/01 10:48:44;;;;;;;7.00;2.00;;;;;;;9.10;99.23;95264.88;5112182;28;20439;-58
2023/12/01 10:51:14;;;;;;;1.00;1.00;;;;;;;9.27;97.86;95252.22;5115422;28;20526;-57
2023/12/01 10:53:45;;;;;;;2.20;2.10;;;;;;;9.31;98.29;95258.56;5096323;28;20932;-57
2023/12/01 10:56:19;;;;;;;0.73;0.70;;;;;;;9.03;95.90;95187.66;5107174;28;20508;-58
2023/12/01 10:58:53;;;;;;;2.17;1.63;;;;;;;9.70;95.40;95274.72;5108399;28;20519;-57
2023/12/01 11:01:24;;;;;;;2.00;1.90;;;;;;;9.77;96.10;95270.75;5094575;28;20865;-58
2023/12/01 11:03:57;;;;;;;2.73;1.27;;;;;;;9.99;94.56;95279.22;5102602;28;20435;-58
2023/12/01 11:06:35;;;;;;;2.40;1.53;;;;;;;9.85;94.17;95282.69;5098729;28;20438;-57
2023/12/01 11:09:11;;;;;;;3.40;0.90;;;;;;;10.09;91.83;95257.25;5094496;28;20440;-57
2023/12/01 11:11:53;;;;;;;3.80;1.50;;;;;;;10.81;89.27;95264.75;5099689;28;20439;-58
2023/12/01 11:14:27;;;;;;;0.70;0.70;;;;;;;10.48;86.98;95276.81;5113455;28;20523;-57
2023/12/01 11:16:56;;;;;;;2.53;2.33;;;;;;;10.58;88.22;95294.53;5094765;28;20495;-57
2023/12/01 11:19:34;;;;;;;10.77;4.10;;;;;;;10.19;88.96;95207.72;5109492;28;20474;-57
2023/12/01 11:22:24;;;;;;;1.40;1.30;;;;;;;10.76;87.83;95286.78;5115212;28;20436;-58
2023/12/01 11:24:52;;;;;;;3.17;2.40;;;;;;;11.36;88.33;95303.47;5115013;28;20466;-56
2023/12/01 11:27:25;;;;;;;2.30;2.10;;;;;;;12.41;82.20;95291.31;5113365;28;20963;-57
2023/12/01 11:30:06;;;;;;;3.83;3.57;;;;;;;13.58;77.17;95280.88;5094161;28;20439;-58
2023/12/01 11:32:40;;;;;;;5.37;3.03;;;;;;;15.11;72.60;95265.41;5107863;28;20454;-58
2023/12/01 11:35:12;;;;;;;6.87;4.10;;;;;;;16.18;65.54;95255.78;5094293;28;20497;-56
2023/12/01 11:38:03;;;;;;;5.40;4.80;;;;;;;16.52;64.29;95235.41;5107736;28;20444;-56
2023/12/01 11:40:41;;;;;;;5.23;4.93;;;;;;;16.82;61.14;95241.03;5094122;28;20540;-55
2023/12/01 11:43:12;;;;;;;5.30;4.80;;;;;;;16.97;61.15;95238.72;5105764;28;20477;-56
2023/12/01 11:45:49;;;;;;;7.77;4.30;;;;;;;17.73;59.93;95241.84;5099482;28;20436;-58
2023/12/01 11:48:18;;;;;;;4.23;4.00;;;;;;;18.18;58.89;95239.59;5094309;28;20992;-57